Terminal Aerodrome Forecast
Issued by NWS

Home | Current Version | Previous Version | Graphics & Text | Print | Product List | Glossary On
Versions: 1 2 3 4 5 6 7 8 9 10 11 12 13 14 15 16 17
317
FTUS43 KMPX 032107 AAB
TAFAXN
TAF AMD
KAXN 032107Z 0321/0418 14011KT P6SM OVC018
     FM040030 16013KT 4SM -SN OVC015
      TEMPO 0401/0405 2SM -SN OVC008
     FM040500 17010KT P6SM OVC006
     FM041500 22010KT P6SM OVC008=

USA.gov is the U.S. government's official web portal to all federal, state and local government web resources and services.